createdAt,value
2019-05-13T00:00:18.183Z,4.50
2019-05-13T00:01:18.170Z,4.30
2019-05-13T00:02:18.161Z,4.60
2019-05-13T00:03:18.154Z,4.20
2019-05-13T00:04:18.141Z,4.50
2019-05-13T00:05:18.131Z,4.40
2019-05-13T00:06:18.123Z,4.40
2019-05-13T00:07:18.120Z,4.70
2019-05-13T00:08:18.110Z,4.40
2019-05-13T00:09:18.099Z,4.10
2019-05-13T00:10:18.096Z,4.20
2019-05-13T00:11:18.078Z,4.40
2019-05-13T00:12:18.070Z,4.50
2019-05-13T00:13:18.665Z,4.10
2019-05-13T00:14:18.052Z,4.20
2019-05-13T00:15:18.039Z,4.10
2019-05-13T00:16:18.030Z,3.70
2019-05-13T00:17:18.022Z,3.90
2019-05-13T00:18:18.663Z,4.00
2019-05-13T00:19:18.665Z,4.60
2019-05-13T00:20:18.001Z,4.40
2019-05-13T00:21:17.990Z,4.50
2019-05-13T00:22:17.978Z,4.00
2019-05-13T00:23:17.973Z,4.80
2019-05-13T00:24:17.957Z,4.40
2019-05-13T00:25:17.967Z,3.50
2019-05-13T00:26:17.940Z,4.00
2019-05-13T00:27:17.936Z,4.20
2019-05-13T00:28:17.924Z,3.90
2019-05-13T00:29:17.913Z,3.80
2019-05-13T00:30:17.902Z,4.30
2019-05-13T00:31:17.898Z,4.00
2019-05-13T00:32:17.889Z,3.60
2019-05-13T00:33:17.883Z,4.30
2019-05-13T00:34:17.869Z,4.40
2019-05-13T00:35:17.858Z,3.60
2019-05-13T00:36:17.847Z,3.90
2019-05-13T00:37:17.843Z,4.20
2019-05-13T00:38:17.829Z,3.90
2019-05-13T00:39:17.825Z,4.10
2019-05-13T00:40:17.814Z,3.70
2019-05-13T00:41:17.806Z,3.60
2019-05-13T00:42:17.796Z,3.80
2019-05-13T00:43:18.672Z,4.10
2019-05-13T00:44:17.773Z,4.10
2019-05-13T00:45:17.767Z,4.30
2019-05-13T00:46:17.763Z,3.70
2019-05-13T00:47:17.758Z,3.50
2019-05-13T00:48:17.737Z,3.90
2019-05-13T00:49:17.730Z,3.60
2019-05-13T00:50:17.717Z,3.70
2019-05-13T00:51:17.712Z,3.70
2019-05-13T00:52:17.710Z,4.00
2019-05-13T00:53:17.694Z,4.20
2019-05-13T00:54:17.684Z,4.00
2019-05-13T00:55:17.675Z,4.00
2019-05-13T00:56:17.661Z,4.40
2019-05-13T00:57:17.653Z,3.80
2019-05-13T00:58:17.645Z,3.90
2019-05-13T00:59:17.642Z,4.00
2019-05-13T01:00:17.632Z,3.70
2019-05-13T01:01:17.618Z,3.80
2019-05-13T01:02:17.614Z,3.50
2019-05-13T01:03:17.603Z,3.80
2019-05-13T01:04:17.592Z,4.10
2019-05-13T01:05:17.583Z,3.70
2019-05-13T01:06:17.572Z,4.10
2019-05-13T01:07:25.868Z,3.90
2019-05-13T01:08:17.553Z,4.20
2019-05-13T01:09:17.543Z,3.90
2019-05-13T01:10:17.532Z,3.90
2019-05-13T01:11:17.528Z,3.80
2019-05-13T01:12:17.518Z,3.70
2019-05-13T01:13:17.508Z,4.10
2019-05-13T01:14:17.498Z,4.00
2019-05-13T01:15:17.487Z,4.20
2019-05-13T01:16:17.476Z,3.40
2019-05-13T01:17:17.470Z,4.10
2019-05-13T01:18:17.462Z,3.60
2019-05-13T01:19:17.450Z,4.70
2019-05-13T01:20:17.438Z,4.00
2019-05-13T01:21:18.190Z,4.10
2019-05-13T01:22:17.417Z,3.80
2019-05-13T01:23:17.413Z,3.70
2019-05-13T01:24:17.406Z,4.00
2019-05-13T01:25:17.397Z,4.10
2019-05-13T01:26:17.384Z,4.10
2019-05-13T01:27:18.194Z,4.20
2019-05-13T01:28:17.361Z,3.80
2019-05-13T01:29:17.369Z,3.70
2019-05-13T01:30:17.350Z,3.50
2019-05-13T01:31:18.203Z,3.80
2019-05-13T01:32:17.328Z,3.30
2019-05-13T01:33:17.313Z,3.90
2019-05-13T01:34:17.303Z,4.20
2019-05-13T01:35:17.297Z,3.70
2019-05-13T01:36:17.288Z,3.80
2019-05-13T01:37:17.280Z,3.80
2019-05-13T01:38:17.269Z,3.80
2019-05-13T01:39:17.268Z,3.90
2019-05-13T01:40:17.245Z,3.60
2019-05-13T01:41:17.234Z,3.60
2019-05-13T01:42:17.225Z,3.60
2019-05-13T01:43:17.222Z,3.90
2019-05-13T01:44:18.202Z,4.00
2019-05-13T01:45:17.200Z,3.70
2019-05-13T01:46:17.189Z,3.60
2019-05-13T01:47:17.176Z,3.70
2019-05-13T01:48:17.166Z,4.10
2019-05-13T01:49:18.665Z,3.70
2019-05-13T01:50:17.149Z,4.20
2019-05-13T01:51:17.139Z,3.70
2019-05-13T01:52:17.127Z,4.10
2019-05-13T01:53:17.117Z,4.30
2019-05-13T01:54:17.107Z,4.20
2019-05-13T01:55:17.101Z,3.90
2019-05-13T01:56:17.091Z,3.90
2019-05-13T01:57:17.090Z,3.50
2019-05-13T01:58:17.074Z,3.60
2019-05-13T01:59:17.057Z,4.10
2019-05-13T02:00:17.044Z,3.80
2019-05-13T02:01:17.044Z,3.50
2019-05-13T02:02:17.029Z,3.90
2019-05-13T02:03:17.025Z,3.70
2019-05-13T02:04:17.016Z,4.00
2019-05-13T02:05:16.999Z,3.80
2019-05-13T02:06:16.988Z,3.90
2019-05-13T02:07:16.990Z,3.70
2019-05-13T02:08:16.975Z,3.50
2019-05-13T02:09:16.963Z,3.80
2019-05-13T02:10:16.952Z,3.70
2019-05-13T02:11:16.941Z,4.50
2019-05-13T02:12:16.930Z,3.80
2019-05-13T02:13:16.921Z,4.20
2019-05-13T02:14:16.913Z,3.40
2019-05-13T02:15:16.903Z,4.20
2019-05-13T02:16:16.892Z,4.30
2019-05-13T02:17:16.883Z,3.60
2019-05-13T02:18:16.873Z,3.80
2019-05-13T02:19:16.861Z,3.90
2019-05-13T02:20:16.852Z,4.00
2019-05-13T02:21:16.843Z,3.80
2019-05-13T02:22:16.835Z,3.70
2019-05-13T02:23:16.820Z,4.40
2019-05-13T02:24:16.809Z,3.80
2019-05-13T02:25:16.800Z,3.90
2019-05-13T02:26:16.790Z,3.50
2019-05-13T02:27:16.783Z,3.50
2019-05-13T02:28:16.779Z,3.80
2019-05-13T02:29:16.767Z,3.80
2019-05-13T02:30:16.774Z,3.50
2019-05-13T02:31:25.801Z,3.80
2019-05-13T02:32:16.731Z,4.00
2019-05-13T02:33:16.720Z,3.80
2019-05-13T02:34:16.710Z,3.80
2019-05-13T02:35:16.703Z,3.90
2019-05-13T02:36:16.694Z,3.80
2019-05-13T02:37:16.679Z,3.50
2019-05-13T02:38:23.876Z,3.90
2019-05-13T02:39:16.665Z,3.70
2019-05-13T02:40:16.654Z,3.70
2019-05-13T02:41:16.648Z,3.70
2019-05-13T02:42:16.641Z,4.60
2019-05-13T02:43:16.619Z,3.70
2019-05-13T02:44:16.610Z,3.70
2019-05-13T02:45:16.601Z,3.90
2019-05-13T02:46:16.591Z,4.10
2019-05-13T02:47:16.584Z,4.10
2019-05-13T02:48:16.576Z,3.80
2019-05-13T02:49:16.564Z,3.50
2019-05-13T02:50:16.566Z,3.70
2019-05-13T02:51:16.538Z,3.40
2019-05-13T02:52:16.530Z,4.30
2019-05-13T02:53:16.522Z,4.00
2019-05-13T02:54:16.516Z,4.20
2019-05-13T02:55:16.504Z,4.00
2019-05-13T02:56:16.490Z,4.00
2019-05-13T02:57:16.486Z,4.00
2019-05-13T02:58:16.468Z,3.90
2019-05-13T02:59:17.234Z,4.00
2019-05-13T03:00:16.452Z,3.80
2019-05-13T03:01:16.446Z,3.70
2019-05-13T03:02:16.442Z,3.70
2019-05-13T03:03:16.418Z,4.00
2019-05-13T03:04:16.411Z,4.40
2019-05-13T03:05:16.403Z,4.00
2019-05-13T03:06:16.386Z,3.90
2019-05-13T03:07:16.376Z,3.90
2019-05-13T03:08:34.133Z,3.80
2019-05-13T03:09:16.356Z,3.80
2019-05-13T03:10:16.347Z,4.40
2019-05-13T03:11:22.485Z,3.90
2019-05-13T03:12:16.335Z,3.80
2019-05-13T03:13:16.320Z,3.70
2019-05-13T03:14:16.313Z,3.70
2019-05-13T03:15:16.294Z,3.80
2019-05-13T03:16:17.252Z,4.40
2019-05-13T03:17:16.274Z,3.80
2019-05-13T03:18:16.264Z,4.20
2019-05-13T03:19:16.260Z,4.00
2019-05-13T03:20:16.935Z,4.20
2019-05-13T03:21:16.242Z,4.00
2019-05-13T03:22:16.226Z,3.90
2019-05-13T03:23:16.214Z,4.10
2019-05-13T03:24:16.209Z,3.90
2019-05-13T03:25:16.194Z,4.20
2019-05-13T03:26:16.186Z,3.90
2019-05-13T03:27:20.306Z,4.00
2019-05-13T03:28:16.735Z,4.00
2019-05-13T03:29:16.159Z,4.10
2019-05-13T03:30:17.317Z,4.30
2019-05-13T03:31:17.739Z,4.00
2019-05-13T03:32:17.401Z,4.20
2019-05-13T03:33:19.600Z,3.90
2019-05-13T03:34:16.728Z,4.20
2019-05-13T03:35:16.960Z,4.60
2019-05-13T03:36:17.652Z,4.10
2019-05-13T03:37:16.699Z,4.50
2019-05-13T03:38:16.058Z,4.80
2019-05-13T03:39:16.943Z,5.30
2019-05-13T03:40:16.042Z,4.80
2019-05-13T03:41:16.027Z,5.00
2019-05-13T03:42:16.015Z,4.90
2019-05-13T03:43:16.010Z,5.20
2019-05-13T03:44:16.001Z,5.30
2019-05-13T03:45:15.990Z,5.40
2019-05-13T03:46:15.976Z,5.10
2019-05-13T03:47:15.968Z,4.90
2019-05-13T03:48:15.955Z,5.10
2019-05-13T03:49:15.946Z,4.40
2019-05-13T03:50:15.942Z,4.70
2019-05-13T03:51:15.931Z,5.00
2019-05-13T03:52:15.911Z,4.50
2019-05-13T03:53:15.902Z,4.80
2019-05-13T03:54:15.900Z,5.20
2019-05-13T03:55:15.882Z,4.60
2019-05-13T03:56:15.871Z,4.80
2019-05-13T03:57:15.859Z,4.60
2019-05-13T03:58:15.863Z,4.30
2019-05-13T03:59:15.840Z,4.70
2019-05-13T04:00:15.830Z,4.70
2019-05-13T04:01:15.832Z,4.60
2019-05-13T04:02:15.821Z,4.80
2019-05-13T04:03:15.800Z,4.60
2019-05-13T04:04:15.792Z,4.70
2019-05-13T04:05:15.793Z,4.20
2019-05-13T04:06:15.768Z,4.50
2019-05-13T04:07:15.758Z,4.60
2019-05-13T04:08:15.744Z,4.60
2019-05-13T04:09:25.519Z,4.40
2019-05-13T04:10:15.727Z,4.90
2019-05-13T04:11:15.723Z,4.80
2019-05-13T04:12:15.713Z,4.70
2019-05-13T04:13:15.693Z,4.30
2019-05-13T04:14:15.681Z,4.90
2019-05-13T04:15:15.688Z,4.80
2019-05-13T04:16:15.668Z,5.20
2019-05-13T04:17:15.655Z,5.40
2019-05-13T04:18:15.646Z,4.50
2019-05-13T04:19:15.631Z,4.20
2019-05-13T04:20:15.637Z,4.60
2019-05-13T04:21:15.627Z,4.40
2019-05-13T04:22:15.600Z,4.40
2019-05-13T04:23:15.601Z,4.70
2019-05-13T04:24:15.581Z,4.80
2019-05-13T04:25:15.586Z,5.40
2019-05-13T04:26:15.557Z,4.60
2019-05-13T04:27:15.545Z,4.80
2019-05-13T04:28:15.541Z,4.20
2019-05-13T04:29:16.017Z,4.80
2019-05-13T04:30:15.527Z,4.30
2019-05-13T04:31:15.503Z,4.30
2019-05-13T04:32:15.498Z,4.50
2019-05-13T04:33:15.484Z,5.00
2019-05-13T04:34:15.474Z,3.90
2019-05-13T04:35:15.479Z,4.20
2019-05-13T04:36:15.463Z,4.20
2019-05-13T04:37:15.447Z,4.30
2019-05-13T04:38:15.433Z,4.30
2019-05-13T04:39:15.420Z,4.00
2019-05-13T04:40:15.410Z,3.90
2019-05-13T04:41:15.410Z,4.10
2019-05-13T04:42:15.388Z,4.00
2019-05-13T04:43:15.382Z,4.10
2019-05-13T04:44:15.373Z,5.00
2019-05-13T04:45:15.359Z,4.90
2019-05-13T04:46:15.348Z,5.30
2019-05-13T04:47:15.345Z,4.40
2019-05-13T04:48:15.331Z,3.90
2019-05-13T04:49:15.321Z,4.10
2019-05-13T04:50:15.313Z,4.10
2019-05-13T04:51:15.297Z,3.90
2019-05-13T04:52:15.290Z,4.30
2019-05-13T04:53:15.290Z,3.80
2019-05-13T04:54:15.269Z,4.60
2019-05-13T04:55:15.259Z,3.60
2019-05-13T04:56:15.253Z,3.60
2019-05-13T04:57:15.258Z,4.00
2019-05-13T04:58:15.231Z,4.00
2019-05-13T04:59:15.225Z,3.30
2019-05-13T05:00:15.207Z,4.00
2019-05-13T05:01:15.202Z,3.30
2019-05-13T05:02:15.192Z,3.50
2019-05-13T05:03:23.002Z,3.60
2019-05-13T05:04:24.147Z,3.70
2019-05-13T05:05:15.163Z,3.80
2019-05-13T05:06:15.147Z,4.00
2019-05-13T05:07:15.144Z,4.30
2019-05-13T05:08:15.137Z,3.60
2019-05-13T05:09:15.130Z,3.70
2019-05-13T05:10:26.473Z,3.70
2019-05-13T05:11:15.107Z,4.20
2019-05-13T05:12:15.094Z,3.70
2019-05-13T05:13:15.100Z,3.80
2019-05-13T05:14:15.081Z,3.80
2019-05-13T05:15:15.072Z,4.00
2019-05-13T05:16:15.066Z,3.50
2019-05-13T05:17:15.058Z,3.80
2019-05-13T05:18:15.049Z,3.80
2019-05-13T05:19:15.051Z,3.40
2019-05-13T05:20:15.030Z,3.30
2019-05-13T05:21:15.023Z,3.30
2019-05-13T05:22:15.015Z,3.60
2019-05-13T05:23:15.012Z,3.80
2019-05-13T05:24:14.998Z,3.70
2019-05-13T05:25:14.992Z,3.30
2019-05-13T05:26:15.374Z,3.30
2019-05-13T05:27:14.984Z,3.90
2019-05-13T05:28:14.981Z,3.30
2019-05-13T05:29:14.971Z,3.50
2019-05-13T05:30:14.968Z,3.50
2019-05-13T05:31:14.960Z,3.90
2019-05-13T05:32:14.954Z,4.00
2019-05-13T05:33:14.962Z,3.30
2019-05-13T05:34:14.949Z,3.60
2019-05-13T05:35:14.941Z,3.70
2019-05-13T05:36:14.936Z,3.70
2019-05-13T05:37:14.931Z,3.30
2019-05-13T05:38:14.937Z,3.30
2019-05-13T05:39:14.931Z,3.60
2019-05-13T05:40:28.171Z,3.10
2019-05-13T05:41:14.925Z,3.40
2019-05-13T05:42:14.917Z,3.20
2019-05-13T05:43:14.910Z,3.30
2019-05-13T05:44:14.907Z,3.40
2019-05-13T05:45:14.906Z,3.20
2019-05-13T05:46:14.898Z,3.20
2019-05-13T05:47:14.908Z,3.00
2019-05-13T05:48:14.899Z,3.00
2019-05-13T05:49:14.891Z,3.00
2019-05-13T05:50:14.886Z,3.30
2019-05-13T05:51:14.891Z,3.30
2019-05-13T05:52:14.886Z,3.00
2019-05-13T05:53:14.883Z,2.80
2019-05-13T05:54:15.086Z,2.90
2019-05-13T05:55:14.875Z,2.80
2019-05-13T05:56:14.872Z,3.00
2019-05-13T05:57:14.876Z,2.90
2019-05-13T05:58:14.865Z,2.80
2019-05-13T05:59:14.867Z,3.00
2019-05-13T06:00:14.875Z,2.60
2019-05-13T06:01:14.864Z,2.60
2019-05-13T06:02:14.862Z,3.10
2019-05-13T06:03:14.945Z,2.80
2019-05-13T06:04:14.872Z,2.80
2019-05-13T06:05:14.853Z,2.60
2019-05-13T06:06:14.852Z,2.70
2019-05-13T06:07:14.845Z,2.90
2019-05-13T06:08:17.752Z,2.80
2019-05-13T06:09:14.847Z,2.80
2019-05-13T06:10:14.839Z,2.50
2019-05-13T06:11:14.839Z,2.80
2019-05-13T06:12:14.840Z,2.80
2019-05-13T06:13:14.834Z,2.70
2019-05-13T06:14:14.835Z,3.00
2019-05-13T06:15:14.829Z,2.80
2019-05-13T06:16:14.833Z,3.00
2019-05-13T06:17:14.828Z,2.70
2019-05-13T06:18:14.827Z,2.70
2019-05-13T06:19:17.761Z,3.00
2019-05-13T06:20:14.815Z,2.80
2019-05-13T06:21:14.824Z,3.00
2019-05-13T06:22:14.816Z,2.50
2019-05-13T06:23:14.811Z,2.80
2019-05-13T06:24:14.808Z,2.80
2019-05-13T06:25:14.957Z,2.40
2019-05-13T06:26:14.806Z,2.30
2019-05-13T06:27:14.804Z,2.60
2019-05-13T06:28:14.803Z,2.40
2019-05-13T06:29:14.801Z,2.10
2019-05-13T06:30:14.799Z,2.40
2019-05-13T06:31:14.803Z,2.40
2019-05-13T06:32:22.038Z,2.60
2019-05-13T06:33:17.317Z,2.10
2019-05-13T06:34:14.787Z,2.40
2019-05-13T06:35:14.790Z,2.00
2019-05-13T06:36:14.790Z,2.40
2019-05-13T06:37:14.785Z,2.30
2019-05-13T06:38:14.793Z,2.70
2019-05-13T06:39:15.320Z,2.50
2019-05-13T06:40:14.779Z,3.10
2019-05-13T06:41:15.030Z,2.40
2019-05-13T06:42:14.778Z,2.40
2019-05-13T06:43:14.768Z,2.40
2019-05-13T06:44:14.768Z,2.10
2019-05-13T06:45:14.767Z,2.70
2019-05-13T06:46:14.763Z,2.30
2019-05-13T06:47:15.328Z,2.40
2019-05-13T06:48:14.764Z,2.50
2019-05-13T06:49:14.766Z,2.70
2019-05-13T06:50:14.757Z,2.60
2019-05-13T06:51:14.755Z,2.90
2019-05-13T06:52:14.754Z,2.70
2019-05-13T06:53:14.749Z,2.50
2019-05-13T06:54:14.746Z,2.60
2019-05-13T06:55:14.743Z,2.40
2019-05-13T06:56:14.738Z,2.70
2019-05-13T06:57:14.744Z,2.60
2019-05-13T06:58:14.738Z,2.50
2019-05-13T06:59:14.741Z,2.70
2019-05-13T07:00:14.733Z,2.60
2019-05-13T07:01:14.737Z,2.60
2019-05-13T07:02:14.740Z,2.50
2019-05-13T07:03:14.722Z,2.40
2019-05-13T07:04:14.718Z,2.70
2019-05-13T07:05:14.715Z,2.70
2019-05-13T07:06:14.713Z,2.80
2019-05-13T07:07:17.329Z,2.60
2019-05-13T07:08:14.713Z,2.60
2019-05-13T07:09:14.707Z,2.70
2019-05-13T07:10:14.704Z,3.20
2019-05-13T07:11:21.088Z,3.30
2019-05-13T07:12:14.707Z,2.30
2019-05-13T07:13:14.704Z,2.60
2019-05-13T07:14:14.697Z,2.80
2019-05-13T07:15:14.698Z,2.70
2019-05-13T07:16:14.699Z,2.60
2019-05-13T07:17:15.342Z,2.60
2019-05-13T07:18:16.290Z,3.20
2019-05-13T07:19:14.695Z,2.80
2019-05-13T07:20:14.689Z,2.50
2019-05-13T07:21:14.686Z,2.60
2019-05-13T07:22:14.684Z,3.00
2019-05-13T07:23:14.681Z,2.90
2019-05-13T07:24:14.679Z,3.10
2019-05-13T07:25:14.681Z,2.80
2019-05-13T07:26:14.680Z,3.00
2019-05-13T07:27:14.673Z,2.70
2019-05-13T07:28:14.680Z,3.20
2019-05-13T07:29:15.200Z,2.60
2019-05-13T07:30:14.668Z,2.80
2019-05-13T07:31:14.672Z,2.40
2019-05-13T07:32:14.677Z,3.00
2019-05-13T07:33:14.671Z,2.70
2019-05-13T07:34:14.668Z,2.80
2019-05-13T07:35:14.924Z,3.00
2019-05-13T07:36:14.665Z,2.50
2019-05-13T07:37:14.662Z,3.00
2019-05-13T07:38:14.667Z,2.80
2019-05-13T07:39:14.665Z,2.60
2019-05-13T07:40:14.661Z,2.50
2019-05-13T07:41:14.659Z,3.10
2019-05-13T07:42:14.657Z,2.70
2019-05-13T07:43:14.659Z,2.70
2019-05-13T07:44:14.658Z,2.90
2019-05-13T07:45:14.660Z,3.10
2019-05-13T07:46:14.661Z,2.80
2019-05-13T07:47:15.966Z,2.90
2019-05-13T07:48:21.065Z,2.90
2019-05-13T07:49:14.653Z,3.10
2019-05-13T07:50:14.648Z,2.80
2019-05-13T07:51:14.653Z,2.20
2019-05-13T07:52:14.653Z,2.90
2019-05-13T07:53:18.702Z,2.70
2019-05-13T07:54:14.654Z,2.90
2019-05-13T07:55:14.648Z,3.00
2019-05-13T07:56:14.649Z,2.60
2019-05-13T07:57:14.655Z,2.90
2019-05-13T07:58:15.369Z,3.00
2019-05-13T07:59:15.366Z,2.70
2019-05-13T08:00:14.649Z,3.30
2019-05-13T08:01:14.647Z,2.80
2019-05-13T08:02:14.641Z,2.70
2019-05-13T08:03:15.369Z,3.10
2019-05-13T08:04:22.358Z,3.20
2019-05-13T08:05:14.645Z,3.00
2019-05-13T08:06:14.643Z,2.90
2019-05-13T08:07:14.640Z,3.20
2019-05-13T08:08:14.656Z,2.50
2019-05-13T08:09:14.638Z,2.80
2019-05-13T08:10:14.640Z,2.80
2019-05-13T08:11:14.640Z,3.10
2019-05-13T08:12:14.907Z,3.50
2019-05-13T08:13:14.635Z,3.00
2019-05-13T08:14:14.634Z,3.00
2019-05-13T08:15:14.686Z,3.80
2019-05-13T08:16:14.635Z,3.40
2019-05-13T08:17:14.633Z,3.00
2019-05-13T08:18:14.632Z,3.00
2019-05-13T08:19:14.629Z,3.10
2019-05-13T08:20:14.626Z,3.70
2019-05-13T08:21:14.638Z,3.10
2019-05-13T08:22:14.625Z,3.30
2019-05-13T08:23:14.627Z,3.10
2019-05-13T08:24:14.627Z,3.30
2019-05-13T08:25:14.624Z,3.30
2019-05-13T08:26:14.623Z,2.90
2019-05-13T08:27:14.617Z,3.00
2019-05-13T08:28:14.615Z,2.60
2019-05-13T08:29:14.615Z,2.70
2019-05-13T08:30:17.952Z,2.90
2019-05-13T08:31:14.612Z,3.10
2019-05-13T08:32:14.609Z,3.10
2019-05-13T08:33:14.619Z,2.60
2019-05-13T08:34:14.607Z,3.00
2019-05-13T08:35:14.608Z,2.70
2019-05-13T08:36:14.610Z,3.20
2019-05-13T08:37:14.605Z,2.60
2019-05-13T08:38:14.602Z,2.70
2019-05-13T08:39:14.599Z,2.60
2019-05-13T08:40:15.387Z,2.80
2019-05-13T08:41:18.796Z,2.80
2019-05-13T08:42:18.993Z,2.30
2019-05-13T08:43:14.597Z,2.60
2019-05-13T08:44:14.601Z,2.60
2019-05-13T08:45:14.587Z,2.60
2019-05-13T08:46:14.582Z,2.80
2019-05-13T08:47:14.584Z,2.80
2019-05-13T08:48:14.584Z,2.60
2019-05-13T08:49:14.589Z,2.50
2019-05-13T08:50:14.582Z,3.00
2019-05-13T08:51:14.574Z,2.80
2019-05-13T08:52:14.627Z,2.80
2019-05-13T08:53:14.569Z,2.60
2019-05-13T08:54:15.394Z,4.90
2019-05-13T08:55:16.190Z,3.90
2019-05-13T08:56:14.561Z,3.20
2019-05-13T08:57:14.559Z,2.80
2019-05-13T08:58:14.557Z,2.80
2019-05-13T08:59:14.549Z,3.00
2019-05-13T09:00:14.546Z,2.90
2019-05-13T09:01:14.548Z,2.70
2019-05-13T09:02:14.544Z,2.90
2019-05-13T09:03:14.541Z,2.70
2019-05-13T09:04:14.535Z,2.40
2019-05-13T09:05:14.531Z,2.80
2019-05-13T09:06:14.528Z,2.90
2019-05-13T09:07:14.529Z,3.00
2019-05-13T09:08:14.528Z,2.50
2019-05-13T09:09:14.524Z,2.40
2019-05-13T09:10:14.518Z,2.50
2019-05-13T09:11:14.511Z,2.50
2019-05-13T09:12:28.600Z,2.20
2019-05-13T09:13:15.405Z,2.10
2019-05-13T09:14:14.502Z,2.50
2019-05-13T09:15:14.506Z,2.20
2019-05-13T09:16:14.499Z,2.40
2019-05-13T09:17:14.490Z,2.60
2019-05-13T09:18:14.487Z,2.10
2019-05-13T09:19:16.264Z,2.10
2019-05-13T09:20:14.482Z,3.00
2019-05-13T09:21:14.481Z,2.50
2019-05-13T09:22:15.414Z,2.30
2019-05-13T09:23:14.467Z,2.40
2019-05-13T09:24:24.990Z,2.60
2019-05-13T09:25:14.472Z,2.40
2019-05-13T09:26:14.461Z,2.30
2019-05-13T09:27:14.456Z,2.50
2019-05-13T09:28:14.450Z,2.50
2019-05-13T09:29:14.448Z,2.40
2019-05-13T09:30:14.442Z,2.30
2019-05-13T09:31:14.436Z,2.60
2019-05-13T09:32:14.431Z,2.30
2019-05-13T09:33:14.434Z,2.40
2019-05-13T09:34:14.423Z,2.60
2019-05-13T09:35:14.417Z,2.40
2019-05-13T09:36:14.418Z,2.30
2019-05-13T09:37:14.409Z,2.60
2019-05-13T09:38:14.404Z,2.60
2019-05-13T09:39:14.404Z,2.40
2019-05-13T09:40:14.923Z,2.50
2019-05-13T09:41:14.403Z,2.60
2019-05-13T09:42:14.388Z,2.50
2019-05-13T09:43:14.383Z,2.70
2019-05-13T09:44:14.377Z,3.00
2019-05-13T09:45:14.374Z,2.60
2019-05-13T09:46:14.372Z,3.40
2019-05-13T09:47:14.369Z,2.70
2019-05-13T09:48:14.366Z,2.40
2019-05-13T09:49:19.797Z,3.00
2019-05-13T09:50:28.582Z,2.80
2019-05-13T09:51:14.351Z,2.50
2019-05-13T09:52:14.346Z,2.70
2019-05-13T09:53:14.343Z,2.80
2019-05-13T09:54:14.338Z,2.80
2019-05-13T09:55:26.361Z,2.60
2019-05-13T09:56:14.327Z,2.30
2019-05-13T09:57:14.324Z,2.50
2019-05-13T09:58:14.321Z,2.70
2019-05-13T09:59:14.335Z,2.30
2019-05-13T10:00:14.316Z,2.80
2019-05-13T10:01:14.308Z,2.30
2019-05-13T10:02:14.307Z,2.60
2019-05-13T10:03:14.364Z,2.30
2019-05-13T10:04:14.295Z,1.90
2019-05-13T10:05:14.356Z,2.40
2019-05-13T10:06:14.289Z,2.30
2019-05-13T10:07:14.284Z,2.40
2019-05-13T10:08:14.281Z,2.70
2019-05-13T10:09:14.271Z,2.20
2019-05-13T10:10:14.268Z,2.10
2019-05-13T10:11:14.268Z,2.30
2019-05-13T10:12:14.264Z,2.50
2019-05-13T10:13:15.700Z,2.00
2019-05-13T10:14:14.256Z,2.50
2019-05-13T10:15:14.248Z,1.90
2019-05-13T10:16:14.242Z,2.30
2019-05-13T10:17:14.247Z,2.10
2019-05-13T10:18:14.234Z,2.30
2019-05-13T10:19:14.236Z,2.30
2019-05-13T10:20:14.229Z,2.40
2019-05-13T10:21:14.222Z,2.00
2019-05-13T10:22:14.219Z,2.10
2019-05-13T10:23:14.217Z,2.20
2019-05-13T10:24:14.212Z,2.00
2019-05-13T10:25:14.258Z,2.10
2019-05-13T10:26:14.695Z,2.30
2019-05-13T10:27:18.664Z,2.30
2019-05-13T10:28:14.194Z,2.20
2019-05-13T10:29:14.191Z,2.60
2019-05-13T10:30:14.185Z,1.70
2019-05-13T10:31:14.185Z,2.00
2019-05-13T10:32:14.955Z,1.60
2019-05-13T10:33:14.178Z,1.80
2019-05-13T10:34:14.362Z,2.10
2019-05-13T10:35:14.168Z,2.00
2019-05-13T10:36:14.162Z,2.00
2019-05-13T10:37:14.162Z,1.80
2019-05-13T10:38:14.157Z,2.00
2019-05-13T10:39:14.150Z,2.00
2019-05-13T10:40:14.145Z,1.90
2019-05-13T10:41:14.146Z,2.00
2019-05-13T10:42:14.136Z,2.20
2019-05-13T10:43:29.484Z,1.90
2019-05-13T10:44:14.133Z,2.10
2019-05-13T10:45:14.133Z,1.90
2019-05-13T10:46:14.129Z,1.90
2019-05-13T10:47:14.136Z,2.10
2019-05-13T10:48:14.116Z,1.70
2019-05-13T10:49:14.112Z,1.60
2019-05-13T10:50:14.106Z,1.80
2019-05-13T10:51:14.106Z,1.60
2019-05-13T10:52:14.099Z,1.70
2019-05-13T10:53:14.092Z,1.70
2019-05-13T10:54:14.087Z,1.70
2019-05-13T10:55:14.092Z,1.30
2019-05-13T10:56:14.093Z,1.60
2019-05-13T10:57:14.078Z,1.60
2019-05-13T10:58:14.072Z,2.00
2019-05-13T10:59:14.068Z,1.80
2019-05-13T11:00:14.065Z,1.90
2019-05-13T11:01:14.060Z,1.40
2019-05-13T11:02:14.055Z,1.60
2019-05-13T11:03:14.053Z,1.50
2019-05-13T11:04:14.102Z,1.40
2019-05-13T11:05:14.044Z,1.90
2019-05-13T11:06:14.970Z,1.60
2019-05-13T11:07:14.966Z,1.30
2019-05-13T11:08:14.026Z,1.80
2019-05-13T11:09:14.031Z,1.80
2019-05-13T11:10:14.020Z,1.70
2019-05-13T11:11:14.014Z,1.70
2019-05-13T11:12:14.010Z,2.10
2019-05-13T11:13:14.007Z,1.70
2019-05-13T11:14:15.782Z,1.70
2019-05-13T11:15:16.976Z,1.60
2019-05-13T11:16:13.996Z,1.70
2019-05-13T11:17:13.992Z,1.70
2019-05-13T11:18:18.997Z,1.60
2019-05-13T11:19:13.981Z,1.90
2019-05-13T11:20:13.979Z,1.70
2019-05-13T11:21:13.973Z,1.40
2019-05-13T11:22:13.967Z,1.70
2019-05-13T11:23:13.987Z,1.70
2019-05-13T11:24:13.975Z,1.60
2019-05-13T11:25:13.957Z,2.00
2019-05-13T11:26:13.950Z,2.10
2019-05-13T11:27:13.948Z,2.30
2019-05-13T11:28:13.946Z,1.90
2019-05-13T11:29:14.482Z,1.60
2019-05-13T11:30:13.955Z,1.90
2019-05-13T11:31:13.929Z,1.70
2019-05-13T11:32:13.923Z,1.70
2019-05-13T11:33:14.482Z,1.60
2019-05-13T11:34:13.915Z,1.60
2019-05-13T11:35:13.928Z,1.60
2019-05-13T11:36:19.001Z,2.00
2019-05-13T11:37:13.913Z,1.90
2019-05-13T11:38:13.902Z,1.70
2019-05-13T11:39:13.894Z,1.60
2019-05-13T11:40:13.895Z,2.20
2019-05-13T11:41:13.898Z,2.00
2019-05-13T11:42:14.051Z,1.70
2019-05-13T11:43:13.877Z,1.80
2019-05-13T11:44:16.784Z,1.60
2019-05-13T11:45:13.869Z,1.60
2019-05-13T11:46:13.868Z,1.70
2019-05-13T11:47:13.864Z,1.70
2019-05-13T11:48:13.864Z,1.60
2019-05-13T11:49:13.869Z,1.90
2019-05-13T11:50:13.852Z,1.70
2019-05-13T11:51:13.843Z,1.50
2019-05-13T11:52:13.839Z,1.80
2019-05-13T11:53:31.221Z,1.50
2019-05-13T11:54:14.313Z,2.40
2019-05-13T11:55:13.833Z,1.70
2019-05-13T11:56:13.858Z,1.70
2019-05-13T11:57:13.818Z,2.00
2019-05-13T11:58:14.303Z,1.60
2019-05-13T11:59:14.314Z,1.70
2019-05-13T12:00:13.821Z,2.00
2019-05-13T12:01:13.805Z,1.90
2019-05-13T12:02:14.137Z,1.70
2019-05-13T12:03:13.796Z,1.60
2019-05-13T12:04:13.790Z,1.60
2019-05-13T12:05:13.800Z,1.60
2019-05-13T12:06:13.780Z,1.70
2019-05-13T12:07:13.867Z,1.60
2019-05-13T12:08:13.775Z,1.80
2019-05-13T12:09:13.769Z,1.70
2019-05-13T12:10:13.770Z,1.80
2019-05-13T12:11:14.213Z,2.10
2019-05-13T12:12:14.072Z,1.80
2019-05-13T12:13:13.756Z,2.10
2019-05-13T12:14:37.162Z,1.80
2019-05-13T12:15:27.101Z,2.00
2019-05-13T12:16:14.505Z,1.80
2019-05-13T12:17:14.328Z,2.00
2019-05-13T12:18:13.733Z,1.80
2019-05-13T12:19:13.731Z,1.80
2019-05-13T12:20:13.732Z,1.90
2019-05-13T12:21:13.722Z,1.60
2019-05-13T12:22:13.738Z,1.80
2019-05-13T12:23:13.766Z,1.90
2019-05-13T12:24:13.707Z,1.70
2019-05-13T12:25:14.127Z,1.70
2019-05-13T12:26:13.697Z,1.90
2019-05-13T12:27:13.698Z,2.10
2019-05-13T12:28:13.708Z,1.70
2019-05-13T12:29:18.516Z,1.70
2019-05-13T12:30:13.691Z,1.80
2019-05-13T12:31:13.681Z,2.00
2019-05-13T12:32:13.924Z,2.00
2019-05-13T12:33:13.742Z,1.90
2019-05-13T12:34:13.730Z,2.10
2019-05-13T12:35:13.662Z,1.70
2019-05-13T12:36:18.036Z,2.00
2019-05-13T12:37:13.655Z,1.90
2019-05-13T12:38:13.982Z,2.00
2019-05-13T12:39:14.449Z,1.90
2019-05-13T12:40:13.640Z,2.10
2019-05-13T12:41:13.643Z,1.90
2019-05-13T12:42:13.645Z,1.90
2019-05-13T12:43:13.631Z,1.70
2019-05-13T12:44:13.625Z,1.80
2019-05-13T12:45:14.569Z,2.00
2019-05-13T12:46:13.621Z,2.10
2019-05-13T12:47:13.613Z,1.80
2019-05-13T12:48:14.223Z,2.00
2019-05-13T12:49:14.508Z,1.80
2019-05-13T12:50:16.523Z,1.80
2019-05-13T12:51:13.599Z,2.20
2019-05-13T12:52:13.596Z,1.80
2019-05-13T12:53:13.594Z,1.90
2019-05-13T12:54:14.282Z,2.00
2019-05-13T12:55:14.232Z,2.00
2019-05-13T12:56:13.626Z,2.20
2019-05-13T12:57:16.128Z,2.00
2019-05-13T12:58:13.567Z,2.30
2019-05-13T12:59:13.695Z,2.00
2019-05-13T13:00:14.533Z,2.00
2019-05-13T13:01:13.558Z,2.30
2019-05-13T13:02:13.615Z,1.90
2019-05-13T13:03:14.535Z,2.10
2019-05-13T13:04:16.538Z,1.70
2019-05-13T13:05:20.037Z,1.90
2019-05-13T13:06:31.440Z,1.80
2019-05-13T13:07:13.688Z,2.10
2019-05-13T13:08:28.922Z,2.10
2019-05-13T13:09:13.523Z,2.00
2019-05-13T13:10:14.551Z,2.10
2019-05-13T13:11:13.589Z,2.20
2019-05-13T13:12:13.518Z,1.90
2019-05-13T13:13:13.515Z,2.30
2019-05-13T13:14:15.628Z,2.00
2019-05-13T13:15:36.477Z,1.70
2019-05-13T13:16:13.534Z,2.10
2019-05-13T13:17:13.498Z,2.00
2019-05-13T13:18:14.578Z,2.00